NCAR-RAP Real-Time Weather Data

Output produced by METARs form (27 May 2017  08:19 UTC)
found at http://weather.rap.ucar.edu/surface/
 
Conditions at: KMCF observed 27 May 2017  07:58 UTC
Temperature: 15.8°C (60°F)
Dewpoint: 14.4°C (58°F) [RH = 91%]
Pressure (altimeter): 30.04 inches Hg (1017.4 mb)
[Sea-level pressure: 1017.6 mb]
Winds: calm
Visibility: 10 or more miles (16+ km)
Ceiling: at least 12,000 feet AGL
Clouds: sky clear below 12,000 feet AGL
Present Weather:
SOME DATA ABOVE MAY BE INACCURATE!!!
"$" is an indication the sensor requires maintenance
KMCF 270758Z AUTO 00000KT 10SM CLR 16/14 A3004 RMK AO2 SLP176 T01580144 $

Conditions at: KMCF observed 27 May 2017  06:58 UTC
Temperature: 16.6°C (62°F)
Dewpoint: 15.7°C (60°F) [RH = 94%]
Pressure (altimeter): 30.05 inches Hg (1017.7 mb)
[Sea-level pressure: 1017.9 mb]
Winds: calm
Visibility: 10 or more miles (16+ km)
Ceiling: at least 12,000 feet AGL
Clouds: sky clear below 12,000 feet AGL
Present Weather:
SOME DATA ABOVE MAY BE INACCURATE!!!
"$" is an indication the sensor requires maintenance
KMCF 270658Z AUTO 00000KT 10SM CLR 17/16 A3005 RMK AO2 SLP179 T01660157 $

Conditions at: KMCF observed 27 May 2017  05:58 UTC
Temperature: 16.3°C (61°F)
Dewpoint: 14.3°C (58°F) [RH = 88%]
Pressure (altimeter): 30.06 inches Hg (1018.0 mb)
[Sea-level pressure: 1018.2 mb]
Winds: calm
Visibility: 10 or more miles (16+ km)
Ceiling: at least 12,000 feet AGL
Clouds: sky clear below 12,000 feet AGL
Present Weather:
SOME DATA ABOVE MAY BE INACCURATE!!!
"$" is an indication the sensor requires maintenance
KMCF 270558Z AUTO 00000KT 10SM CLR 16/14 A3006 RMK AO2 SLP182 T01630143 10255 20163 58002 $

Conditions at: KMCF observed 27 May 2017  04:58 UTC
Temperature: 17.2°C (63°F)
Dewpoint: 15.1°C (59°F) [RH = 87%]
Pressure (altimeter): 30.07 inches Hg (1018.4 mb)
[Sea-level pressure: 1018.6 mb]
Winds: from the W (270 degrees) at 3 MPH (3 knots; 1.6 m/s)
Visibility: 10 or more miles (16+ km)
Ceiling: at least 12,000 feet AGL
Clouds: sky clear below 12,000 feet AGL
Present Weather:
SOME DATA ABOVE MAY BE INACCURATE!!!
"$" is an indication the sensor requires maintenance
KMCF 270458Z AUTO 27003KT 10SM CLR 17/15 A3007 RMK AO2 SLP186 T01720151 402990172 $

Conditions at: KMCF observed 27 May 2017  03:58 UTC
Temperature: 18.8°C (66°F)
Dewpoint: 16.9°C (62°F) [RH = 89%]
Pressure (altimeter): 30.07 inches Hg (1018.4 mb)
[Sea-level pressure: 1018.6 mb]
Winds: calm
Visibility: 10 or more miles (16+ km)
Ceiling: at least 12,000 feet AGL
Clouds: sky clear below 12,000 feet AGL
Present Weather:
SOME DATA ABOVE MAY BE INACCURATE!!!
"$" is an indication the sensor requires maintenance
KMCF 270358Z AUTO 00000KT 10SM CLR 19/17 A3007 RMK AO2 SLP186 T01880169 $

Conditions at: KMCF observed 27 May 2017  02:58 UTC
Temperature: 19.0°C (66°F)
Dewpoint: 15.6°C (60°F) [RH = 81%]
Pressure (altimeter): 30.07 inches Hg (1018.4 mb)
[Sea-level pressure: 1018.6 mb]
Winds: calm
Visibility: 10 or more miles (16+ km)
Ceiling: at least 12,000 feet AGL
Clouds: sky clear below 12,000 feet AGL
Present Weather:
SOME DATA ABOVE MAY BE INACCURATE!!!
"$" is an indication the sensor requires maintenance
KMCF 270258Z AUTO 00000KT 10SM CLR 19/16 A3007 RMK AO2 SLP186 T01900156 51009 $

Conditions at: KMCF observed 26 May 2017  23:58 UTC
Temperature: 25.7°C (78°F)
Dewpoint: 16.0°C (61°F) [RH = 55%]
Pressure (altimeter): 30.04 inches Hg (1017.4 mb)
[Sea-level pressure: 1017.6 mb]
Winds: from the WNW (300 degrees) at 5 MPH (4 knots; 2.1 m/s)
Visibility: 10 or more miles (16+ km)
Ceiling: at least 12,000 feet AGL
Clouds: sky clear below 12,000 feet AGL
Present Weather:
SOME DATA ABOVE MAY BE INACCURATE!!!
"$" is an indication the sensor requires maintenance
KMCF 262358Z AUTO 30004KT 10SM CLR 26/16 A3004 RMK AO2 SLP176 T02570160 10298 20257 51002 $

Conditions at: KMCF observed 26 May 2017  22:58 UTC
Temperature: 27.2°C (81°F)
Dewpoint: 16.0°C (61°F) [RH = 50%]
Pressure (altimeter): 30.03 inches Hg (1017.0 mb)
[Sea-level pressure: 1017.2 mb]
Winds: from the WNW (290 degrees) at 7 MPH (6 knots; 3.1 m/s)
Visibility: 10 or more miles (16+ km)
Ceiling: at least 12,000 feet AGL
Clouds: sky clear below 12,000 feet AGL
Present Weather:
SOME DATA ABOVE MAY BE INACCURATE!!!
"$" is an indication the sensor requires maintenance
KMCF 262258Z AUTO 29006KT 10SM CLR 27/16 A3003 RMK AO2 SLP172 T02720160 $

Conditions at: KMCF observed 26 May 2017  21:58 UTC
Temperature: 28.6°C (83°F)
Dewpoint: 16.3°C (61°F) [RH = 47%]
Pressure (altimeter): 30.03 inches Hg (1017.0 mb)
[Sea-level pressure: 1017.2 mb]
Winds: from the NW (320 degrees) at 10 MPH (9 knots; 4.7 m/s)
Visibility: 10 or more miles (16+ km)
Ceiling: at least 12,000 feet AGL
Clouds: sky clear below 12,000 feet AGL
Present Weather:
SOME DATA ABOVE MAY BE INACCURATE!!!
"$" is an indication the sensor requires maintenance
KMCF 262158Z AUTO 32009KT 10SM CLR 29/16 A3003 RMK AO2 SLP172 T02860163 $

Conditions at: KMCF observed 26 May 2017  20:58 UTC
Temperature: 29.4°C (85°F)
Dewpoint: 15.8°C (60°F) [RH = 44%]
Pressure (altimeter): 30.03 inches Hg (1017.0 mb)
[Sea-level pressure: 1017.2 mb]
Winds: from the WNW (300 degrees) at 9 MPH (8 knots; 4.2 m/s)
Visibility: 10 or more miles (16+ km)
Ceiling: at least 12,000 feet AGL
Clouds: sky clear below 12,000 feet AGL
Present Weather:
SOME DATA ABOVE MAY BE INACCURATE!!!
"$" is an indication the sensor requires maintenance
KMCF 262058Z AUTO 30008KT 10SM CLR 29/16 A3003 RMK AO2 SLP172 T02940158 56009 $

Conditions at: KMCF observed 26 May 2017  19:58 UTC
Temperature: 28.8°C (84°F)
Dewpoint: 18.8°C (66°F) [RH = 55%]
Pressure (altimeter): 30.03 inches Hg (1017.0 mb)
[Sea-level pressure: 1017.2 mb]
Winds: from the SSW (210 degrees) at 6 MPH (5 knots; 2.6 m/s)
Visibility: 10 or more miles (16+ km)
Ceiling: at least 12,000 feet AGL
Clouds: few clouds at 20000 feet AGL
Present Weather:
SOME DATA ABOVE MAY BE INACCURATE!!!
"$" is an indication the sensor requires maintenance
KMCF 261958Z AUTO 21005KT 10SM FEW200 29/19 A3003 RMK AO2 SLP172 T02880188 $

Conditions at: KMCF observed 26 May 2017  18:58 UTC
Temperature: 29.7°C (85°F)
Dewpoint: 18.0°C (64°F) [RH = 49%]
Pressure (altimeter): 30.05 inches Hg (1017.7 mb)
[Sea-level pressure: 1017.9 mb]
Winds: from the NNW (340 degrees) at 6 MPH (5 knots; 2.6 m/s)
Visibility: 10 or more miles (16+ km)
Ceiling: at least 12,000 feet AGL
Clouds: few clouds at 17000 feet AGL
Present Weather:
SOME DATA ABOVE MAY BE INACCURATE!!!
"$" is an indication the sensor requires maintenance
KMCF 261858Z AUTO 34005KT 10SM FEW170 30/18 A3005 RMK AO2 SLP179 T02970180 $

Conditions at: KMCF observed 26 May 2017  17:58 UTC
Temperature: 28.8°C (84°F)
Dewpoint: 17.5°C (64°F) [RH = 51%]
Pressure (altimeter): 30.06 inches Hg (1018.0 mb)
[Sea-level pressure: 1018.2 mb]
Winds: from the SW (230 degrees) at 7 MPH (6 knots; 3.1 m/s)
Visibility: 10 or more miles (16+ km)
Ceiling: at least 12,000 feet AGL
Clouds: few clouds at 16000 feet AGL
Present Weather:
SOME DATA ABOVE MAY BE INACCURATE!!!
"$" is an indication the sensor requires maintenance
KMCF 261758Z AUTO 23006KT 10SM FEW160 29/18 A3006 RMK AO2 SLP182 T02880175 10299 20240 58007 $

Conditions at: KMCF observed 26 May 2017  16:58 UTC
Temperature: 29.9°C (86°F)
Dewpoint: 16.4°C (62°F) [RH = 44%]
Pressure (altimeter): 30.07 inches Hg (1018.4 mb)
[Sea-level pressure: 1018.6 mb]
Winds: from the WSW (250 degrees) at 7 MPH (6 knots; 3.1 m/s)
Visibility: 10 or more miles (16+ km)
Ceiling: at least 12,000 feet AGL
Clouds: few clouds at 21000 feet AGL
Present Weather:
SOME DATA ABOVE MAY BE INACCURATE!!!
"$" is an indication the sensor requires maintenance
KMCF 261658Z AUTO 25006KT 10SM FEW210 30/16 A3007 RMK AO2 SLP186 T02990164 $

Conditions at: KMCF observed 26 May 2017  15:58 UTC
Temperature: 29.7°C (85°F)
Dewpoint: 16.0°C (61°F) [RH = 44%]
Pressure (altimeter): 30.08 inches Hg (1018.7 mb)
[Sea-level pressure: 1018.9 mb]
Winds: from the NE (50 degrees) at 7 MPH (6 knots; 3.1 m/s)
Visibility: 10 or more miles (16+ km)
Ceiling: at least 12,000 feet AGL
Clouds: sky clear below 12,000 feet AGL
Present Weather:
SOME DATA ABOVE MAY BE INACCURATE!!!
"$" is an indication the sensor requires maintenance
KMCF 261558Z AUTO 05006KT 10SM CLR 30/16 A3008 RMK AO2 SLP189 T02970160 $

Conditions at: KMCF observed 26 May 2017  14:58 UTC
Temperature: 28.9°C (84°F)
Dewpoint: 14.6°C (58°F) [RH = 42%]
Pressure (altimeter): 30.08 inches Hg (1018.7 mb)
[Sea-level pressure: 1018.9 mb]
Winds: calm
Visibility: 10 or more miles (16+ km)
Ceiling: at least 12,000 feet AGL
Clouds: sky clear below 12,000 feet AGL
Present Weather:
SOME DATA ABOVE MAY BE INACCURATE!!!
"$" is an indication the sensor requires maintenance
KMCF 261458Z AUTO 00000KT 10SM CLR 29/15 A3008 RMK AO2 SLP189 T02890146 50010 $

Conditions at: KMCF observed 26 May 2017  13:58 UTC
Temperature: 27.2°C (81°F)
Dewpoint: 16.3°C (61°F) [RH = 51%]
Pressure (altimeter): 30.08 inches Hg (1018.7 mb)
[Sea-level pressure: 1018.9 mb]
Winds: from the NNE (20 degrees) at 5 MPH (4 knots; 2.1 m/s)
Visibility: 10 or more miles (16+ km)
Ceiling: at least 12,000 feet AGL
Clouds: sky clear below 12,000 feet AGL
Present Weather:
SOME DATA ABOVE MAY BE INACCURATE!!!
"$" is an indication the sensor requires maintenance
KMCF 261358Z AUTO 02004KT 10SM CLR 27/16 A3008 RMK AO2 SLP189 T02720163 $

Conditions at: KMCF observed 26 May 2017  12:58 UTC
Temperature: 25.5°C (78°F)
Dewpoint: 18.7°C (66°F) [RH = 66%]
Pressure (altimeter): 30.08 inches Hg (1018.7 mb)
[Sea-level pressure: 1018.9 mb]
Winds: from the NE (40 degrees) at 3 MPH (3 knots; 1.6 m/s)
Visibility: 10 or more miles (16+ km)
Ceiling: at least 12,000 feet AGL
Clouds: sky clear below 12,000 feet AGL
Present Weather:
SOME DATA ABOVE MAY BE INACCURATE!!!
"$" is an indication the sensor requires maintenance
KMCF 261258Z AUTO 04003KT 10SM CLR 26/19 A3008 RMK AO2 SLP189 T02550187 $

Conditions at: KMCF observed 26 May 2017  11:58 UTC
Temperature: 23.7°C (75°F)
Dewpoint: 17.6°C (64°F) [RH = 69%]
Pressure (altimeter): 30.05 inches Hg (1017.7 mb)
[Sea-level pressure: 1017.9 mb]
Winds: from the E (100 degrees) at 3 MPH (3 knots; 1.6 m/s)
Visibility: 10 or more miles (16+ km)
Ceiling: at least 12,000 feet AGL
Clouds: sky clear below 12,000 feet AGL
Present Weather:
SOME DATA ABOVE MAY BE INACCURATE!!!
"$" is an indication the sensor requires maintenance
KMCF 261158Z AUTO 10003KT 10SM CLR 24/18 A3005 RMK AO2 SLP179 T02370176 10237 20180 52016 $

Conditions at: KMCF observed 26 May 2017  10:58 UTC
Temperature: 19.9°C (68°F)
Dewpoint: 16.9°C (62°F) [RH = 83%]
Pressure (altimeter): 30.03 inches Hg (1017.0 mb)
[Sea-level pressure: 1017.2 mb]
Winds: from the N (350 degrees) at 5 MPH (4 knots; 2.1 m/s)
Visibility: 10 or more miles (16+ km)
Ceiling: at least 12,000 feet AGL
Clouds: sky clear below 12,000 feet AGL
Present Weather:
SOME DATA ABOVE MAY BE INACCURATE!!!
"$" is an indication the sensor requires maintenance
KMCF 261058Z AUTO 35004KT 10SM CLR 20/17 A3003 RMK AO2 SLP172 T01990169 $

Conditions at: KMCF observed 26 May 2017  09:58 UTC
Temperature: 19.8°C (68°F)
Dewpoint: 16.7°C (62°F) [RH = 82%]
Pressure (altimeter): 30.01 inches Hg (1016.3 mb)
[Sea-level pressure: 1016.5 mb]
Winds: from the N (350 degrees) at 7 MPH (6 knots; 3.1 m/s)
Visibility: 10 or more miles (16+ km)
Ceiling: at least 12,000 feet AGL
Clouds: sky clear below 12,000 feet AGL
Present Weather:
SOME DATA ABOVE MAY BE INACCURATE!!!
"$" is an indication the sensor requires maintenance
KMCF 260958Z AUTO 35006KT 10SM CLR 20/17 A3001 RMK AO2 SLP165 T01980167 $

Conditions at: KMCF observed 26 May 2017  08:58 UTC
Temperature: 19.6°C (67°F)
Dewpoint: 16.6°C (62°F) [RH = 83%]
Pressure (altimeter): 30.00 inches Hg (1016.0 mb)
[Sea-level pressure: 1016.2 mb]
Winds: from the NW (320 degrees) at 5 MPH (4 knots; 2.1 m/s)
Visibility: 10 or more miles (16+ km)
Ceiling: at least 12,000 feet AGL
Clouds: sky clear below 12,000 feet AGL
Present Weather:
SOME DATA ABOVE MAY BE INACCURATE!!!
"$" is an indication the sensor requires maintenance
KMCF 260858Z AUTO 32004KT 10SM CLR 20/17 A3000 RMK AO2 SLP162 T01960166 51006 $